createdAt,value
2018-11-01T00:02:09.193Z,12.93
2018-11-01T00:06:11.517Z,14.17
2018-11-01T00:10:14.027Z,14.67
2018-11-01T00:14:16.325Z,16.37
2018-11-01T00:18:19.418Z,16.63
2018-11-01T00:22:21.748Z,15.73
2018-11-01T00:26:24.111Z,19.07
2018-11-01T00:30:26.455Z,20.77
2018-11-01T00:34:28.753Z,16.57
2018-11-01T00:38:31.284Z,17.13
2018-11-01T00:42:34.193Z,19.13
2018-11-01T00:46:36.659Z,18.60
2018-11-01T00:50:38.992Z,22.70
2018-11-01T00:54:41.346Z,18.87
2018-11-01T00:58:43.630Z,14.10
2018-11-01T01:02:45.974Z,14.47
2018-11-01T01:06:48.363Z,15.23
2018-11-01T01:10:50.651Z,17.07
2018-11-01T01:14:53.003Z,15.23
2018-11-01T01:18:55.436Z,15.70
2018-11-01T01:22:57.620Z,13.73
2018-11-01T01:27:00.025Z,14.37
2018-11-01T01:31:02.325Z,15.10
2018-11-01T01:35:05.594Z,12.80
2018-11-01T01:39:08.560Z,12.77
2018-11-01T01:43:10.964Z,12.43
2018-11-01T01:47:13.258Z,11.93
2018-11-01T01:51:15.634Z,14.33
2018-11-01T01:55:17.912Z,16.83
2018-11-01T01:59:20.200Z,13.67
2018-11-01T02:03:22.478Z,16.30
2018-11-01T02:07:24.804Z,13.97
2018-11-01T02:11:27.127Z,11.37
2018-11-01T02:15:29.438Z,14.97
2018-11-01T02:19:31.771Z,13.17
2018-11-01T02:23:34.168Z,10.10
2018-11-01T02:27:42.279Z,9.83
2018-11-01T02:31:44.575Z,11.03
2018-11-01T02:35:46.927Z,11.00
2018-11-01T02:39:49.250Z,12.30
2018-11-01T02:43:51.568Z,10.43
2018-11-01T02:47:53.887Z,11.93
2018-11-01T02:51:56.139Z,9.70
2018-11-01T02:55:58.441Z,10.53
2018-11-01T03:00:00.763Z,10.40
2018-11-01T03:04:03.126Z,9.50
2018-11-01T03:08:05.452Z,8.37
2018-11-01T03:12:07.839Z,9.30
2018-11-01T03:16:10.063Z,9.77
2018-11-01T03:20:12.760Z,5.67
2018-11-01T03:24:15.054Z,7.83
2018-11-01T03:28:17.473Z,8.07
2018-11-01T03:32:19.771Z,7.77
2018-11-01T03:36:22.017Z,8.30
2018-11-01T03:40:24.335Z,5.30
2018-11-01T03:44:26.604Z,5.60
2018-11-01T03:48:28.863Z,8.20
2018-11-01T03:52:31.196Z,5.90
2018-11-01T03:56:33.468Z,6.67
2018-11-01T04:00:35.811Z,7.10
2018-11-01T04:04:38.146Z,7.60
2018-11-01T04:08:40.494Z,7.03
2018-11-01T04:12:42.842Z,9.60
2018-11-01T04:16:45.194Z,13.03
2018-11-01T04:20:47.494Z,7.27
2018-11-01T04:24:49.759Z,7.10
2018-11-01T04:28:52.104Z,6.63
2018-11-01T04:32:54.454Z,7.33
2018-11-01T04:36:56.733Z,6.93
2018-11-01T04:40:59.068Z,10.27
2018-11-01T04:45:01.404Z,7.40
2018-11-01T04:49:03.749Z,7.97
2018-11-01T04:53:06.067Z,11.87
2018-11-01T04:57:08.395Z,11.73
2018-11-01T05:01:10.754Z,11.70
2018-11-01T05:05:13.058Z,12.40
2018-11-01T05:09:15.337Z,12.30
2018-11-01T05:13:17.664Z,11.70
2018-11-01T05:17:20.052Z,10.93
2018-11-01T05:21:22.431Z,7.93
2018-11-01T05:25:24.813Z,8.27
2018-11-01T05:29:27.278Z,7.40
2018-11-01T05:33:29.594Z,9.53
2018-11-01T05:37:31.933Z,8.83
2018-11-01T05:41:34.309Z,9.80
2018-11-01T05:45:36.635Z,10.37
2018-11-01T05:49:38.982Z,11.23
2018-11-01T05:55:10.781Z,10.80
2018-11-01T05:59:13.118Z,11.50
2018-11-01T06:03:15.448Z,11.60
2018-11-01T06:07:22.290Z,11.10
2018-11-01T06:11:24.642Z,11.23
2018-11-01T06:15:26.916Z,10.67
2018-11-01T06:19:29.256Z,11.57
2018-11-01T06:23:31.717Z,10.57
2018-11-01T06:27:34.001Z,14.00
2018-11-01T06:31:36.435Z,10.30
2018-11-01T06:35:56.346Z,9.47
2018-11-01T06:39:58.686Z,9.90
2018-11-01T06:44:01.032Z,8.60
2018-11-01T06:48:03.362Z,8.87
2018-11-01T06:52:05.723Z,9.03
2018-11-01T06:56:08.029Z,13.33
2018-11-01T07:00:13.324Z,10.13
2018-11-01T07:04:15.617Z,12.07
2018-11-01T07:08:18.030Z,11.37
2018-11-01T07:12:20.341Z,13.80
2018-11-01T07:16:22.660Z,9.90
2018-11-01T07:20:24.963Z,11.17
2018-11-01T07:24:27.263Z,10.07
2018-11-01T07:28:29.693Z,10.97
2018-11-01T07:32:32.016Z,14.60
2018-11-01T07:36:34.309Z,9.80
2018-11-01T07:40:36.748Z,11.17
2018-11-01T07:44:39.030Z,14.20
2018-11-01T07:48:41.421Z,8.97
2018-11-01T07:52:43.783Z,7.50
2018-11-01T07:56:46.102Z,8.00
2018-11-01T08:00:48.445Z,7.40
2018-11-01T08:04:50.795Z,8.80
2018-11-01T08:08:53.207Z,10.27
2018-11-01T08:12:55.501Z,14.73
2018-11-01T08:16:57.800Z,17.53
2018-11-01T08:21:00.309Z,13.77
2018-11-01T08:25:02.440Z,11.70
2018-11-01T08:29:04.857Z,10.07
2018-11-01T08:33:07.154Z,9.83
2018-11-01T08:37:09.516Z,22.13
2018-11-01T08:41:11.790Z,10.37
2018-11-01T08:45:15.196Z,11.63
2018-11-01T08:49:17.535Z,13.80
2018-11-01T08:53:19.869Z,15.77
2018-11-01T08:57:22.264Z,15.37
2018-11-01T09:01:24.676Z,13.43
2018-11-01T09:05:26.985Z,12.43
2018-11-01T09:09:29.286Z,10.67
2018-11-01T09:13:31.586Z,10.57
2018-11-01T09:17:34.032Z,9.33
2018-11-01T09:21:36.370Z,11.33
2018-11-01T09:25:38.695Z,10.07
2018-11-01T09:29:41.044Z,12.37
2018-11-01T09:33:43.435Z,11.97
2018-11-01T09:37:45.730Z,9.17
2018-11-01T09:41:48.039Z,10.10
2018-11-01T09:45:50.375Z,9.10
2018-11-01T09:49:52.704Z,12.33
2018-11-01T09:53:55.071Z,10.00
2018-11-01T09:57:57.328Z,8.37
2018-11-01T10:01:59.660Z,7.90
2018-11-01T10:06:01.964Z,12.23
2018-11-01T10:10:06.543Z,11.37
2018-11-01T10:14:09.030Z,14.00
2018-11-01T10:18:11.778Z,11.60
2018-11-01T10:22:13.668Z,13.03
2018-11-01T10:26:16.041Z,13.10
2018-11-01T10:30:19.711Z,9.67
2018-11-01T10:34:22.234Z,8.73
2018-11-01T10:38:24.561Z,13.37
2018-11-01T10:42:27.016Z,9.17
2018-11-01T10:46:29.387Z,9.37
2018-11-01T10:50:31.732Z,10.77
2018-11-01T10:54:34.123Z,10.47
2018-11-01T10:58:36.620Z,6.10
2018-11-01T11:02:40.053Z,8.00
2018-11-01T11:06:42.405Z,6.30
2018-11-01T11:10:44.659Z,6.13
2018-11-01T11:14:47.108Z,7.07
2018-11-01T11:18:49.405Z,5.30
2018-11-01T11:22:51.830Z,6.00
2018-11-01T11:26:54.154Z,6.03
2018-11-01T11:30:56.519Z,6.60
2018-11-01T11:34:58.824Z,6.47
2018-11-01T11:39:01.229Z,8.10
2018-11-01T11:43:03.555Z,9.63
2018-11-01T11:47:05.912Z,7.40
2018-11-01T11:51:08.255Z,9.83
2018-11-01T11:55:10.891Z,7.67
2018-11-01T11:59:13.204Z,7.63
2018-11-01T12:03:15.639Z,7.73
2018-11-01T12:07:18.013Z,7.97
2018-11-01T12:11:20.415Z,8.93
2018-11-01T12:15:22.755Z,8.07
2018-11-01T12:19:25.063Z,10.00
2018-11-01T12:23:27.418Z,10.50
2018-11-01T12:27:29.849Z,7.77
2018-11-01T12:31:32.169Z,6.83
2018-11-01T12:35:34.586Z,8.23
2018-11-01T12:39:36.819Z,7.20
2018-11-01T12:43:39.189Z,7.93
2018-11-01T12:47:42.106Z,7.53
2018-11-01T12:51:44.432Z,8.20
2018-11-01T12:55:46.743Z,8.30
2018-11-01T12:59:49.075Z,8.27
2018-11-01T13:03:51.451Z,7.80
2018-11-01T13:07:53.851Z,8.13
2018-11-01T13:11:56.163Z,7.40
2018-11-01T13:17:01.482Z,7.00
2018-11-01T13:21:04.168Z,8.60
2018-11-01T13:25:07.997Z,9.63
2018-11-01T13:29:10.319Z,12.80
2018-11-01T13:33:12.704Z,10.07
2018-11-01T13:37:15.089Z,14.70
2018-11-01T13:41:17.684Z,15.37
2018-11-01T13:45:19.964Z,10.43
2018-11-01T13:49:22.263Z,13.57
2018-11-01T13:53:24.639Z,10.37
2018-11-01T13:57:26.932Z,12.20
2018-11-01T14:01:29.257Z,12.87
2018-11-01T14:05:31.582Z,12.73
2018-11-01T14:09:33.882Z,12.93
2018-11-01T14:13:36.418Z,12.87
2018-11-01T14:17:39.092Z,16.10
2018-11-01T14:21:41.368Z,15.53
2018-11-01T14:25:43.703Z,15.20
2018-11-01T14:29:45.982Z,14.93
2018-11-01T14:33:48.334Z,22.27
2018-11-01T14:37:50.688Z,14.83
2018-11-01T14:41:52.967Z,14.50
2018-11-01T14:45:55.343Z,16.23
2018-11-01T14:49:57.660Z,16.53
2018-11-01T14:54:00.637Z,14.60
2018-11-01T14:58:03.658Z,14.13
2018-11-01T15:02:04.732Z,14.30
2018-11-01T15:06:07.103Z,13.37
2018-11-01T15:10:11.122Z,14.53
2018-11-01T15:14:13.395Z,14.37
2018-11-01T15:18:15.718Z,14.57
2018-11-01T15:22:18.115Z,15.33
2018-11-01T15:26:20.538Z,15.03
2018-11-01T15:30:22.794Z,15.53
2018-11-01T15:34:25.120Z,15.70
2018-11-01T15:38:27.440Z,16.70
2018-11-01T15:42:29.982Z,17.13
2018-11-01T15:46:32.431Z,14.70
2018-11-01T15:50:34.814Z,17.23
2018-11-01T15:54:37.137Z,17.27
2018-11-01T15:58:39.597Z,16.43
2018-11-01T16:02:43.029Z,16.43
2018-11-01T16:06:45.318Z,15.60
2018-11-01T16:10:47.725Z,15.17
2018-11-01T16:14:50.173Z,21.13
2018-11-01T16:18:52.564Z,18.23
2018-11-01T16:22:54.944Z,17.60
2018-11-01T16:26:57.415Z,21.90
2018-11-01T16:30:59.818Z,19.17
2018-11-01T16:35:02.213Z,21.63
2018-11-01T16:39:07.974Z,17.03
2018-11-01T16:43:10.420Z,18.10
2018-11-01T16:47:13.708Z,18.17
2018-11-01T16:51:16.109Z,20.80
2018-11-01T16:55:18.668Z,19.27
2018-11-01T16:59:21.078Z,22.13
2018-11-01T17:03:23.486Z,23.63
2018-11-01T17:07:25.884Z,23.73
2018-11-01T17:11:28.344Z,24.27
2018-11-01T17:15:30.782Z,22.37
2018-11-01T17:19:33.122Z,22.50
2018-11-01T17:23:35.561Z,25.27
2018-11-01T17:27:37.988Z,28.13
2018-11-01T17:31:40.374Z,30.13
2018-11-01T17:35:42.758Z,25.43
2018-11-01T17:39:45.083Z,22.43
2018-11-01T17:43:47.629Z,22.50
2018-11-01T17:47:50.822Z,22.23
2018-11-01T17:51:53.896Z,22.53
2018-11-01T17:55:56.192Z,24.90
2018-11-01T17:59:59.552Z,24.40
2018-11-01T18:04:01.883Z,27.43
2018-11-01T18:08:04.259Z,31.70
2018-11-01T18:12:06.611Z,28.53
2018-11-01T18:16:09.006Z,27.97
2018-11-01T18:20:12.662Z,25.93
2018-11-01T18:24:15.222Z,24.33
2018-11-01T18:28:18.553Z,24.67
2018-11-01T18:32:21.866Z,26.87
2018-11-01T18:36:25.393Z,27.80
2018-11-01T18:40:27.825Z,27.13
2018-11-01T18:44:30.186Z,26.37
2018-11-01T18:48:32.620Z,30.97
2018-11-01T18:52:35.086Z,29.60
2018-11-01T18:56:37.723Z,31.87
2018-11-01T19:00:40.225Z,33.03
2018-11-01T19:04:42.470Z,28.37
2018-11-01T19:08:44.831Z,26.97
2018-11-01T19:12:47.160Z,25.57
2018-11-01T19:16:49.496Z,26.15
2018-11-01T19:20:52.459Z,22.80
2018-11-01T19:24:54.860Z,22.87
2018-11-01T19:28:57.342Z,20.93
2018-11-01T19:32:59.825Z,23.70
2018-11-01T19:37:02.236Z,24.15
2018-11-01T19:41:04.891Z,22.33
2018-11-01T19:45:07.422Z,23.60
2018-11-01T19:49:09.832Z,25.27
2018-11-01T19:53:12.173Z,26.03
2018-11-01T19:57:14.661Z,26.33
2018-11-01T20:01:17.227Z,26.37
2018-11-01T20:05:19.633Z,25.63
2018-11-01T20:09:22.081Z,28.27
2018-11-01T20:13:24.710Z,28.90
2018-11-01T20:17:27.747Z,25.73
2018-11-01T20:21:30.298Z,25.37
2018-11-01T20:25:32.796Z,26.37
2018-11-01T20:29:35.075Z,26.67
2018-11-01T20:33:37.606Z,26.50
2018-11-01T20:37:40.569Z,26.03
2018-11-01T20:41:43.551Z,23.83
2018-11-01T20:45:45.957Z,26.00
2018-11-01T20:49:48.330Z,24.20
2018-11-01T20:53:51.331Z,21.70
2018-11-01T20:57:53.830Z,24.00
2018-11-01T21:01:56.054Z,24.03
2018-11-01T21:05:59.278Z,22.33
2018-11-01T21:10:01.595Z,23.23
2018-11-01T21:14:04.075Z,22.93
2018-11-01T21:18:06.460Z,24.83
2018-11-01T21:22:10.115Z,24.17
2018-11-01T21:26:12.879Z,24.00
2018-11-01T21:30:15.229Z,25.73
2018-11-01T21:34:17.776Z,26.23
2018-11-01T21:38:20.106Z,26.43
2018-11-01T21:42:22.581Z,22.80
2018-11-01T21:46:24.889Z,22.53
2018-11-01T21:50:27.209Z,22.70
2018-11-01T21:54:29.585Z,22.13
2018-11-01T21:58:31.961Z,21.90
2018-11-01T22:02:34.464Z,22.87
2018-11-01T22:06:36.758Z,22.77
2018-11-01T22:10:39.224Z,20.77
2018-11-01T22:14:41.545Z,21.50
2018-11-01T22:18:47.451Z,21.80
2018-11-01T22:22:49.833Z,23.87
2018-11-01T22:26:52.203Z,24.10
2018-11-01T22:30:54.514Z,23.37
2018-11-01T22:34:56.950Z,25.37
2018-11-01T22:38:59.286Z,25.10
2018-11-01T22:43:01.737Z,25.75
2018-11-01T22:47:04.404Z,22.73
2018-11-01T22:51:07.036Z,22.40
2018-11-01T22:55:10.517Z,20.60
2018-11-01T22:59:12.858Z,21.50
2018-11-01T23:03:15.253Z,22.90
2018-11-01T23:07:17.639Z,21.20
2018-11-01T23:11:20.021Z,20.30
2018-11-01T23:15:22.324Z,22.93
2018-11-01T23:19:24.749Z,21.77
2018-11-01T23:23:27.444Z,21.80
2018-11-01T23:27:34.100Z,19.80
2018-11-01T23:31:37.223Z,18.93
2018-11-01T23:35:39.858Z,20.73
2018-11-01T23:39:47.839Z,20.17
2018-11-01T23:43:55.928Z,20.20
2018-11-01T23:47:59.676Z,19.07
2018-11-01T23:52:06.273Z,20.20
2018-11-01T23:56:08.603Z,20.03
